sensor_id;sensor_type;location;lat;lon;timestamp;temperature;humidity
16305;DHT22;8261;47.678;-122.174;2022-10-15T00:02:20;20.80;99.90
16305;DHT22;8261;47.678;-122.174;2022-10-15T00:04:55;20.80;99.90
16305;DHT22;8261;47.678;-122.174;2022-10-15T00:07:28;20.60;99.90
16305;DHT22;8261;47.678;-122.174;2022-10-15T00:10:00;20.60;99.90
16305;DHT22;8261;47.678;-122.174;2022-10-15T00:12:31;20.60;99.90
16305;DHT22;8261;47.678;-122.174;2022-10-15T00:15:03;20.50;99.90
16305;DHT22;8261;47.678;-122.174;2022-10-15T00:17:35;20.40;99.90
16305;DHT22;8261;47.678;-122.174;2022-10-15T00:20:11;20.30;99.90
16305;DHT22;8261;47.678;-122.174;2022-10-15T00:22:42;20.30;99.90
16305;DHT22;8261;47.678;-122.174;2022-10-15T00:25:14;20.20;99.90
16305;DHT22;8261;47.678;-122.174;2022-10-15T00:27:45;20.10;99.90
16305;DHT22;8261;47.678;-122.174;2022-10-15T00:30:16;20.00;99.90
16305;DHT22;8261;47.678;-122.174;2022-10-15T00:32:46;19.90;99.90
16305;DHT22;8261;47.678;-122.174;2022-10-15T00:35:19;19.80;99.90
16305;DHT22;8261;47.678;-122.174;2022-10-15T00:37:50;19.70;99.90
16305;DHT22;8261;47.678;-122.174;2022-10-15T00:40:22;19.60;99.90
16305;DHT22;8261;47.678;-122.174;2022-10-15T00:42:53;19.50;99.90
16305;DHT22;8261;47.678;-122.174;2022-10-15T00:45:25;19.60;99.90
16305;DHT22;8261;47.678;-122.174;2022-10-15T00:47:56;19.50;99.90
16305;DHT22;8261;47.678;-122.174;2022-10-15T00:50:30;19.50;99.90
16305;DHT22;8261;47.678;-122.174;2022-10-15T00:53:04;19.50;99.90
16305;DHT22;8261;47.678;-122.174;2022-10-15T00:55:40;19.50;99.90
16305;DHT22;8261;47.678;-122.174;2022-10-15T00:58:15;19.40;99.90
16305;DHT22;8261;47.678;-122.174;2022-10-15T01:00:47;19.30;99.90
16305;DHT22;8261;47.678;-122.174;2022-10-15T01:03:19;19.20;99.90
16305;DHT22;8261;47.678;-122.174;2022-10-15T01:05:54;19.10;99.90
16305;DHT22;8261;47.678;-122.174;2022-10-15T01:08:25;18.90;99.90
16305;DHT22;8261;47.678;-122.174;2022-10-15T01:11:04;18.70;99.90
16305;DHT22;8261;47.678;-122.174;2022-10-15T01:13:43;18.50;99.90
16305;DHT22;8261;47.678;-122.174;2022-10-15T01:16:22;18.30;99.90
16305;DHT22;8261;47.678;-122.174;2022-10-15T01:18:58;18.20;99.90
16305;DHT22;8261;47.678;-122.174;2022-10-15T01:21:39;18.10;99.90
16305;DHT22;8261;47.678;-122.174;2022-10-15T01:24:44;18.00;99.90
16305;DHT22;8261;47.678;-122.174;2022-10-15T01:27:28;17.80;99.90
16305;DHT22;8261;47.678;-122.174;2022-10-15T01:30:35;17.60;99.90
16305;DHT22;8261;47.678;-122.174;2022-10-15T01:33:20;17.50;99.90
16305;DHT22;8261;47.678;-122.174;2022-10-15T01:35:59;17.40;99.90
16305;DHT22;8261;47.678;-122.174;2022-10-15T01:38:47;17.30;99.90
16305;DHT22;8261;47.678;-122.174;2022-10-15T01:41:26;17.10;99.90
16305;DHT22;8261;47.678;-122.174;2022-10-15T01:44:02;17.00;99.90
16305;DHT22;8261;47.678;-122.174;2022-10-15T01:46:41;16.90;99.90
16305;DHT22;8261;47.678;-122.174;2022-10-15T01:49:17;16.70;99.90
16305;DHT22;8261;47.678;-122.174;2022-10-15T01:51:51;16.60;99.90
16305;DHT22;8261;47.678;-122.174;2022-10-15T01:54:25;16.50;99.90
16305;DHT22;8261;47.678;-122.174;2022-10-15T01:56:58;16.50;99.90
16305;DHT22;8261;47.678;-122.174;2022-10-15T01:59:32;16.40;99.90
16305;DHT22;8261;47.678;-122.174;2022-10-15T02:02:06;16.40;99.90
16305;DHT22;8261;47.678;-122.174;2022-10-15T02:04:39;16.30;99.90
16305;DHT22;8261;47.678;-122.174;2022-10-15T02:07:14;16.20;99.90
16305;DHT22;8261;47.678;-122.174;2022-10-15T02:09:52;16.20;99.90
16305;DHT22;8261;47.678;-122.174;2022-10-15T02:12:35;16.10;99.90
16305;DHT22;8261;47.678;-122.174;2022-10-15T02:15:17;16.10;99.90
16305;DHT22;8261;47.678;-122.174;2022-10-15T02:17:58;16.10;99.90
16305;DHT22;8261;47.678;-122.174;2022-10-15T02:20:34;16.00;99.90
16305;DHT22;8261;47.678;-122.174;2022-10-15T02:23:12;16.00;99.90
16305;DHT22;8261;47.678;-122.174;2022-10-15T02:25:45;16.00;99.90
16305;DHT22;8261;47.678;-122.174;2022-10-15T02:28:18;16.00;99.90
16305;DHT22;8261;47.678;-122.174;2022-10-15T02:30:51;15.90;99.90
16305;DHT22;8261;47.678;-122.174;2022-10-15T02:33:27;15.90;99.90
16305;DHT22;8261;47.678;-122.174;2022-10-15T02:35:59;15.90;99.90
16305;DHT22;8261;47.678;-122.174;2022-10-15T02:38:32;15.80;99.90
16305;DHT22;8261;47.678;-122.174;2022-10-15T02:41:06;15.70;99.90
16305;DHT22;8261;47.678;-122.174;2022-10-15T02:43:39;15.60;99.90
16305;DHT22;8261;47.678;-122.174;2022-10-15T02:46:12;15.60;99.90
16305;DHT22;8261;47.678;-122.174;2022-10-15T02:48:46;15.50;99.90
16305;DHT22;8261;47.678;-122.174;2022-10-15T02:51:19;15.40;99.90
16305;DHT22;8261;47.678;-122.174;2022-10-15T02:53:50;15.40;99.90
16305;DHT22;8261;47.678;-122.174;2022-10-15T02:56:21;15.40;99.90
16305;DHT22;8261;47.678;-122.174;2022-10-15T02:58:55;15.40;99.90
16305;DHT22;8261;47.678;-122.174;2022-10-15T03:01:26;15.30;99.90
16305;DHT22;8261;47.678;-122.174;2022-10-15T03:04:00;15.30;99.90
16305;DHT22;8261;47.678;-122.174;2022-10-15T03:06:32;15.30;99.90
16305;DHT22;8261;47.678;-122.174;2022-10-15T03:09:03;15.20;99.90
16305;DHT22;8261;47.678;-122.174;2022-10-15T03:11:34;15.20;99.90
16305;DHT22;8261;47.678;-122.174;2022-10-15T03:14:05;15.20;99.90
16305;DHT22;8261;47.678;-122.174;2022-10-15T03:16:36;15.20;99.90
16305;DHT22;8261;47.678;-122.174;2022-10-15T03:19:10;15.10;99.90
16305;DHT22;8261;47.678;-122.174;2022-10-15T03:21:41;15.10;99.90
16305;DHT22;8261;47.678;-122.174;2022-10-15T03:24:12;15.00;99.90
16305;DHT22;8261;47.678;-122.174;2022-10-15T03:26:43;15.00;99.90
16305;DHT22;8261;47.678;-122.174;2022-10-15T03:29:15;15.00;99.90
16305;DHT22;8261;47.678;-122.174;2022-10-15T03:31:45;14.90;99.90
16305;DHT22;8261;47.678;-122.174;2022-10-15T03:34:19;14.90;99.90
16305;DHT22;8261;47.678;-122.174;2022-10-15T03:36:50;14.80;99.90
16305;DHT22;8261;47.678;-122.174;2022-10-15T03:39:21;14.70;99.90
16305;DHT22;8261;47.678;-122.174;2022-10-15T03:41:52;14.70;99.90
16305;DHT22;8261;47.678;-122.174;2022-10-15T03:44:24;14.60;99.90
16305;DHT22;8261;47.678;-122.174;2022-10-15T03:46:55;14.60;99.90
16305;DHT22;8261;47.678;-122.174;2022-10-15T03:49:28;14.50;99.90
16305;DHT22;8261;47.678;-122.174;2022-10-15T03:51:59;14.50;99.90
16305;DHT22;8261;47.678;-122.174;2022-10-15T03:54:32;14.50;99.90
16305;DHT22;8261;47.678;-122.174;2022-10-15T03:57:03;14.40;99.90
16305;DHT22;8261;47.678;-122.174;2022-10-15T03:59:34;14.40;99.90
16305;DHT22;8261;47.678;-122.174;2022-10-15T04:02:06;14.40;99.90
16305;DHT22;8261;47.678;-122.174;2022-10-15T04:04:40;14.30;99.90
16305;DHT22;8261;47.678;-122.174;2022-10-15T04:07:11;14.30;99.90
16305;DHT22;8261;47.678;-122.174;2022-10-15T04:09:43;14.20;99.90
16305;DHT22;8261;47.678;-122.174;2022-10-15T04:12:14;14.20;99.90
16305;DHT22;8261;47.678;-122.174;2022-10-15T04:14:45;14.10;99.90
16305;DHT22;8261;47.678;-122.174;2022-10-15T04:17:16;14.20;99.90
16305;DHT22;8261;47.678;-122.174;2022-10-15T04:19:51;14.10;99.90
16305;DHT22;8261;47.678;-122.174;2022-10-15T04:22:22;14.10;99.90
16305;DHT22;8261;47.678;-122.174;2022-10-15T04:24:54;14.10;99.90
16305;DHT22;8261;47.678;-122.174;2022-10-15T04:27:25;14.00;99.90
16305;DHT22;8261;47.678;-122.174;2022-10-15T04:29:56;14.00;99.90
16305;DHT22;8261;47.678;-122.174;2022-10-15T04:32:28;14.00;99.90
16305;DHT22;8261;47.678;-122.174;2022-10-15T04:35:01;14.00;99.90
16305;DHT22;8261;47.678;-122.174;2022-10-15T04:37:33;13.90;99.90
16305;DHT22;8261;47.678;-122.174;2022-10-15T04:40:05;13.90;99.90
16305;DHT22;8261;47.678;-122.174;2022-10-15T04:42:37;13.90;99.90
16305;DHT22;8261;47.678;-122.174;2022-10-15T04:45:08;13.90;99.90
16305;DHT22;8261;47.678;-122.174;2022-10-15T04:47:39;13.80;99.90
16305;DHT22;8261;47.678;-122.174;2022-10-15T04:50:12;13.80;99.90
16305;DHT22;8261;47.678;-122.174;2022-10-15T04:52:43;13.80;99.90
16305;DHT22;8261;47.678;-122.174;2022-10-15T04:55:14;13.80;99.90
16305;DHT22;8261;47.678;-122.174;2022-10-15T04:57:48;13.80;99.90
16305;DHT22;8261;47.678;-122.174;2022-10-15T05:00:19;13.70;99.90
16305;DHT22;8261;47.678;-122.174;2022-10-15T05:02:50;13.70;99.90
16305;DHT22;8261;47.678;-122.174;2022-10-15T05:05:24;13.60;99.90
16305;DHT22;8261;47.678;-122.174;2022-10-15T05:07:59;13.60;99.90
16305;DHT22;8261;47.678;-122.174;2022-10-15T05:10:31;13.60;99.90
16305;DHT22;8261;47.678;-122.174;2022-10-15T05:13:02;13.50;99.90
16305;DHT22;8261;47.678;-122.174;2022-10-15T05:15:33;13.50;99.90
16305;DHT22;8261;47.678;-122.174;2022-10-15T05:18:04;13.50;99.90
16305;DHT22;8261;47.678;-122.174;2022-10-15T05:20:37;13.40;99.90
16305;DHT22;8261;47.678;-122.174;2022-10-15T05:23:11;13.40;99.90
16305;DHT22;8261;47.678;-122.174;2022-10-15T05:25:43;13.40;99.90
16305;DHT22;8261;47.678;-122.174;2022-10-15T05:28:20;13.40;99.90
16305;DHT22;8261;47.678;-122.174;2022-10-15T05:30:52;13.30;99.90
16305;DHT22;8261;47.678;-122.174;2022-10-15T05:33:23;13.20;99.90
16305;DHT22;8261;47.678;-122.174;2022-10-15T05:36:07;13.20;99.90
16305;DHT22;8261;47.678;-122.174;2022-10-15T05:38:39;13.20;99.90
16305;DHT22;8261;47.678;-122.174;2022-10-15T05:41:11;13.20;99.90
16305;DHT22;8261;47.678;-122.174;2022-10-15T05:43:44;13.10;99.90
16305;DHT22;8261;47.678;-122.174;2022-10-15T05:46:16;13.10;99.90
16305;DHT22;8261;47.678;-122.174;2022-10-15T05:48:48;13.10;99.90
16305;DHT22;8261;47.678;-122.174;2022-10-15T05:51:23;13.00;99.90
16305;DHT22;8261;47.678;-122.174;2022-10-15T05:53:56;13.00;99.90
16305;DHT22;8261;47.678;-122.174;2022-10-15T05:56:27;13.00;99.90
16305;DHT22;8261;47.678;-122.174;2022-10-15T05:58:58;13.00;99.90
16305;DHT22;8261;47.678;-122.174;2022-10-15T06:01:30;13.00;99.90
16305;DHT22;8261;47.678;-122.174;2022-10-15T06:04:01;13.00;99.90
16305;DHT22;8261;47.678;-122.174;2022-10-15T06:06:35;13.00;99.90
16305;DHT22;8261;47.678;-122.174;2022-10-15T06:09:07;13.00;99.90
16305;DHT22;8261;47.678;-122.174;2022-10-15T06:11:38;13.00;99.90
16305;DHT22;8261;47.678;-122.174;2022-10-15T06:14:09;12.90;99.90
16305;DHT22;8261;47.678;-122.174;2022-10-15T06:16:41;12.90;99.90
16305;DHT22;8261;47.678;-122.174;2022-10-15T06:19:12;12.90;99.90
16305;DHT22;8261;47.678;-122.174;2022-10-15T06:21:46;12.80;99.90
16305;DHT22;8261;47.678;-122.174;2022-10-15T06:24:21;12.80;99.90
16305;DHT22;8261;47.678;-122.174;2022-10-15T06:26:52;12.80;99.90
16305;DHT22;8261;47.678;-122.174;2022-10-15T06:29:23;12.70;99.90
16305;DHT22;8261;47.678;-122.174;2022-10-15T06:31:54;12.70;99.90
16305;DHT22;8261;47.678;-122.174;2022-10-15T06:34:26;12.70;99.90
16305;DHT22;8261;47.678;-122.174;2022-10-15T06:37:00;12.70;99.90
16305;DHT22;8261;47.678;-122.174;2022-10-15T06:39:31;12.60;99.90
16305;DHT22;8261;47.678;-122.174;2022-10-15T06:42:02;12.60;99.90
16305;DHT22;8261;47.678;-122.174;2022-10-15T06:44:33;12.60;99.90
16305;DHT22;8261;47.678;-122.174;2022-10-15T06:47:05;12.60;99.90
16305;DHT22;8261;47.678;-122.174;2022-10-15T06:49:36;12.50;99.90
16305;DHT22;8261;47.678;-122.174;2022-10-15T06:52:11;12.50;99.90
16305;DHT22;8261;47.678;-122.174;2022-10-15T06:54:42;12.40;99.90
16305;DHT22;8261;47.678;-122.174;2022-10-15T06:57:13;12.40;99.90
16305;DHT22;8261;47.678;-122.174;2022-10-15T06:59:44;12.40;99.90
16305;DHT22;8261;47.678;-122.174;2022-10-15T07:02:16;12.40;99.90
16305;DHT22;8261;47.678;-122.174;2022-10-15T07:04:48;12.30;99.90
16305;DHT22;8261;47.678;-122.174;2022-10-15T07:07:22;12.30;99.90
16305;DHT22;8261;47.678;-122.174;2022-10-15T07:09:53;12.30;99.90
16305;DHT22;8261;47.678;-122.174;2022-10-15T07:12:25;12.20;99.90
16305;DHT22;8261;47.678;-122.174;2022-10-15T07:14:55;12.20;99.90
16305;DHT22;8261;47.678;-122.174;2022-10-15T07:17:28;12.20;99.90
16305;DHT22;8261;47.678;-122.174;2022-10-15T07:20:03;12.20;99.90
16305;DHT22;8261;47.678;-122.174;2022-10-15T07:22:36;12.20;99.90
16305;DHT22;8261;47.678;-122.174;2022-10-15T07:25:08;12.20;99.90
16305;DHT22;8261;47.678;-122.174;2022-10-15T07:27:39;12.20;99.90
16305;DHT22;8261;47.678;-122.174;2022-10-15T07:30:11;12.20;99.90
16305;DHT22;8261;47.678;-122.174;2022-10-15T07:32:43;12.20;99.90
16305;DHT22;8261;47.678;-122.174;2022-10-15T07:35:14;12.20;99.90
16305;DHT22;8261;47.678;-122.174;2022-10-15T07:37:47;12.10;99.90
16305;DHT22;8261;47.678;-122.174;2022-10-15T07:40:19;12.10;99.90
16305;DHT22;8261;47.678;-122.174;2022-10-15T07:42:54;12.10;99.90
16305;DHT22;8261;47.678;-122.174;2022-10-15T07:45:26;12.10;99.90
16305;DHT22;8261;47.678;-122.174;2022-10-15T07:47:57;12.00;99.90
16305;DHT22;8261;47.678;-122.174;2022-10-15T07:50:30;12.00;99.90
16305;DHT22;8261;47.678;-122.174;2022-10-15T07:53:08;12.00;99.90
16305;DHT22;8261;47.678;-122.174;2022-10-15T07:55:39;12.00;99.90
16305;DHT22;8261;47.678;-122.174;2022-10-15T07:58:10;11.90;99.90
16305;DHT22;8261;47.678;-122.174;2022-10-15T08:00:41;11.90;99.90
16305;DHT22;8261;47.678;-122.174;2022-10-15T08:03:12;11.90;99.90
16305;DHT22;8261;47.678;-122.174;2022-10-15T08:05:43;11.90;99.90
16305;DHT22;8261;47.678;-122.174;2022-10-15T08:08:18;11.80;99.90
16305;DHT22;8261;47.678;-122.174;2022-10-15T08:10:49;11.80;99.90
16305;DHT22;8261;47.678;-122.174;2022-10-15T08:13:20;11.80;99.90
16305;DHT22;8261;47.678;-122.174;2022-10-15T08:15:51;11.80;99.90
16305;DHT22;8261;47.678;-122.174;2022-10-15T08:18:26;11.80;99.90
16305;DHT22;8261;47.678;-122.174;2022-10-15T08:20:59;11.80;99.90
16305;DHT22;8261;47.678;-122.174;2022-10-15T08:23:33;11.70;99.90
16305;DHT22;8261;47.678;-122.174;2022-10-15T08:26:04;11.70;99.90
16305;DHT22;8261;47.678;-122.174;2022-10-15T08:28:37;11.70;99.90
16305;DHT22;8261;47.678;-122.174;2022-10-15T08:31:09;11.70;99.90
16305;DHT22;8261;47.678;-122.174;2022-10-15T08:33:40;11.70;99.90
16305;DHT22;8261;47.678;-122.174;2022-10-15T08:36:14;11.70;99.90
16305;DHT22;8261;47.678;-122.174;2022-10-15T08:38:47;11.70;99.90
16305;DHT22;8261;47.678;-122.174;2022-10-15T08:41:24;11.70;99.90
16305;DHT22;8261;47.678;-122.174;2022-10-15T08:43:56;11.60;99.90
16305;DHT22;8261;47.678;-122.174;2022-10-15T08:46:33;11.60;99.90
16305;DHT22;8261;47.678;-122.174;2022-10-15T08:49:05;11.60;99.90
16305;DHT22;8261;47.678;-122.174;2022-10-15T08:51:47;11.60;99.90
16305;DHT22;8261;47.678;-122.174;2022-10-15T08:54:23;11.60;99.90
16305;DHT22;8261;47.678;-122.174;2022-10-15T08:57:06;11.50;99.90
16305;DHT22;8261;47.678;-122.174;2022-10-15T08:59:41;11.50;99.90
16305;DHT22;8261;47.678;-122.174;2022-10-15T09:02:22;11.50;99.90
16305;DHT22;8261;47.678;-122.174;2022-10-15T09:05:00;11.50;99.90
16305;DHT22;8261;47.678;-122.174;2022-10-15T09:07:35;11.50;99.90
16305;DHT22;8261;47.678;-122.174;2022-10-15T09:10:16;11.40;99.90
16305;DHT22;8261;47.678;-122.174;2022-10-15T09:12:56;11.40;99.90
16305;DHT22;8261;47.678;-122.174;2022-10-15T09:15:32;11.40;99.90
16305;DHT22;8261;47.678;-122.174;2022-10-15T09:18:17;11.40;99.90
16305;DHT22;8261;47.678;-122.174;2022-10-15T09:20:50;11.40;99.90
16305;DHT22;8261;47.678;-122.174;2022-10-15T09:23:25;11.30;99.90
16305;DHT22;8261;47.678;-122.174;2022-10-15T09:26:02;11.30;99.90
16305;DHT22;8261;47.678;-122.174;2022-10-15T09:28:39;11.30;99.90
16305;DHT22;8261;47.678;-122.174;2022-10-15T09:31:15;11.40;99.90
16305;DHT22;8261;47.678;-122.174;2022-10-15T09:33:53;11.40;99.90
16305;DHT22;8261;47.678;-122.174;2022-10-15T09:36:33;11.40;99.90
16305;DHT22;8261;47.678;-122.174;2022-10-15T09:39:26;11.40;99.90
16305;DHT22;8261;47.678;-122.174;2022-10-15T09:42:12;11.30;99.90
16305;DHT22;8261;47.678;-122.174;2022-10-15T09:44:46;11.40;99.90
16305;DHT22;8261;47.678;-122.174;2022-10-15T09:47:22;11.30;99.90
16305;DHT22;8261;47.678;-122.174;2022-10-15T09:49:54;11.30;99.90
16305;DHT22;8261;47.678;-122.174;2022-10-15T09:52:43;11.30;99.90
16305;DHT22;8261;47.678;-122.174;2022-10-15T09:58:14;11.30;99.90
16305;DHT22;8261;47.678;-122.174;2022-10-15T10:00:56;11.30;99.90
16305;DHT22;8261;47.678;-122.174;2022-10-15T10:03:29;11.30;99.90
16305;DHT22;8261;47.678;-122.174;2022-10-15T10:06:03;11.30;99.90
16305;DHT22;8261;47.678;-122.174;2022-10-15T10:08:37;11.30;99.90
16305;DHT22;8261;47.678;-122.174;2022-10-15T10:11:10;11.30;99.90
16305;DHT22;8261;47.678;-122.174;2022-10-15T10:13:49;11.30;99.90
16305;DHT22;8261;47.678;-122.174;2022-10-15T10:16:22;11.30;99.90
16305;DHT22;8261;47.678;-122.174;2022-10-15T10:19:05;11.20;99.90
16305;DHT22;8261;47.678;-122.174;2022-10-15T10:21:42;11.20;99.90
16305;DHT22;8261;47.678;-122.174;2022-10-15T10:24:25;11.10;99.90
16305;DHT22;8261;47.678;-122.174;2022-10-15T10:26:58;11.10;99.90
16305;DHT22;8261;47.678;-122.174;2022-10-15T10:29:39;11.00;99.90
16305;DHT22;8261;47.678;-122.174;2022-10-15T10:32:17;11.00;99.90
16305;DHT22;8261;47.678;-122.174;2022-10-15T10:34:50;10.90;99.90
16305;DHT22;8261;47.678;-122.174;2022-10-15T10:37:21;10.90;99.90
16305;DHT22;8261;47.678;-122.174;2022-10-15T10:39:55;10.90;99.90
16305;DHT22;8261;47.678;-122.174;2022-10-15T10:42:31;10.90;99.90
16305;DHT22;8261;47.678;-122.174;2022-10-15T10:45:22;10.90;99.90
16305;DHT22;8261;47.678;-122.174;2022-10-15T10:47:55;10.90;99.90
16305;DHT22;8261;47.678;-122.174;2022-10-15T10:50:31;10.90;99.90
16305;DHT22;8261;47.678;-122.174;2022-10-15T10:53:21;10.90;99.90
16305;DHT22;8261;47.678;-122.174;2022-10-15T10:55:55;10.90;99.90
16305;DHT22;8261;47.678;-122.174;2022-10-15T10:58:28;10.90;99.90
16305;DHT22;8261;47.678;-122.174;2022-10-15T11:01:07;10.90;99.90
16305;DHT22;8261;47.678;-122.174;2022-10-15T11:03:41;10.80;99.90
16305;DHT22;8261;47.678;-122.174;2022-10-15T11:06:31;10.80;99.90
16305;DHT22;8261;47.678;-122.174;2022-10-15T11:09:35;10.80;99.90
16305;DHT22;8261;47.678;-122.174;2022-10-15T11:12:25;10.70;99.90
16305;DHT22;8261;47.678;-122.174;2022-10-15T11:15:10;10.70;99.90
16305;DHT22;8261;47.678;-122.174;2022-10-15T11:18:02;10.70;99.90
16305;DHT22;8261;47.678;-122.174;2022-10-15T11:20:44;10.70;99.90
16305;DHT22;8261;47.678;-122.174;2022-10-15T11:26:36;10.60;99.90
16305;DHT22;8261;47.678;-122.174;2022-10-15T11:29:30;10.60;99.90
16305;DHT22;8261;47.678;-122.174;2022-10-15T11:32:15;10.60;99.90
16305;DHT22;8261;47.678;-122.174;2022-10-15T11:35:11;10.60;99.90
16305;DHT22;8261;47.678;-122.174;2022-10-15T11:38:16;10.60;99.90
16305;DHT22;8261;47.678;-122.174;2022-10-15T11:40:59;10.50;99.90
16305;DHT22;8261;47.678;-122.174;2022-10-15T11:43:46;10.50;99.90
16305;DHT22;8261;47.678;-122.174;2022-10-15T11:46:26;10.50;99.90
16305;DHT22;8261;47.678;-122.174;2022-10-15T11:49:13;10.50;99.90
16305;DHT22;8261;47.678;-122.174;2022-10-15T11:52:02;10.50;99.90
16305;DHT22;8261;47.678;-122.174;2022-10-15T11:54:37;10.60;99.90
16305;DHT22;8261;47.678;-122.174;2022-10-15T11:57:12;10.60;99.90
16305;DHT22;8261;47.678;-122.174;2022-10-15T11:59:48;10.60;99.90
16305;DHT22;8261;47.678;-122.174;2022-10-15T12:02:25;10.60;99.90
16305;DHT22;8261;47.678;-122.174;2022-10-15T12:05:01;10.60;99.90
16305;DHT22;8261;47.678;-122.174;2022-10-15T12:07:39;10.60;99.90
16305;DHT22;8261;47.678;-122.174;2022-10-15T12:10:26;10.60;99.90
16305;DHT22;8261;47.678;-122.174;2022-10-15T12:13:04;10.60;99.90
16305;DHT22;8261;47.678;-122.174;2022-10-15T12:15:44;10.60;99.90
16305;DHT22;8261;47.678;-122.174;2022-10-15T12:18:22;10.60;99.90
16305;DHT22;8261;47.678;-122.174;2022-10-15T12:20:56;10.60;99.90
16305;DHT22;8261;47.678;-122.174;2022-10-15T12:23:40;10.60;99.90
16305;DHT22;8261;47.678;-122.174;2022-10-15T12:26:30;10.60;99.90
16305;DHT22;8261;47.678;-122.174;2022-10-15T12:29:04;10.60;99.90
16305;DHT22;8261;47.678;-122.174;2022-10-15T12:31:49;10.60;99.90
16305;DHT22;8261;47.678;-122.174;2022-10-15T12:34:29;10.60;99.90
16305;DHT22;8261;47.678;-122.174;2022-10-15T12:37:03;10.60;99.90
16305;DHT22;8261;47.678;-122.174;2022-10-15T12:39:41;10.60;99.90
16305;DHT22;8261;47.678;-122.174;2022-10-15T12:42:22;10.60;99.90
16305;DHT22;8261;47.678;-122.174;2022-10-15T12:44:55;10.60;99.90
16305;DHT22;8261;47.678;-122.174;2022-10-15T12:47:47;10.60;99.90
16305;DHT22;8261;47.678;-122.174;2022-10-15T12:50:20;10.60;99.90
16305;DHT22;8261;47.678;-122.174;2022-10-15T12:53:00;10.60;99.90
16305;DHT22;8261;47.678;-122.174;2022-10-15T12:55:36;10.60;99.90
16305;DHT22;8261;47.678;-122.174;2022-10-15T12:58:31;10.60;99.90
16305;DHT22;8261;47.678;-122.174;2022-10-15T13:01:04;10.50;99.90
16305;DHT22;8261;47.678;-122.174;2022-10-15T13:03:39;10.60;99.90
16305;DHT22;8261;47.678;-122.174;2022-10-15T13:06:32;10.50;99.90
16305;DHT22;8261;47.678;-122.174;2022-10-15T13:11:54;10.50;99.90
16305;DHT22;8261;47.678;-122.174;2022-10-15T13:14:30;10.50;99.90
16305;DHT22;8261;47.678;-122.174;2022-10-15T13:17:05;10.50;99.90
16305;DHT22;8261;47.678;-122.174;2022-10-15T13:19:47;10.50;99.90
16305;DHT22;8261;47.678;-122.174;2022-10-15T13:22:22;10.50;99.90
16305;DHT22;8261;47.678;-122.174;2022-10-15T13:24:54;10.50;99.90
16305;DHT22;8261;47.678;-122.174;2022-10-15T13:27:30;10.50;99.90
16305;DHT22;8261;47.678;-122.174;2022-10-15T13:30:04;10.40;99.90
16305;DHT22;8261;47.678;-122.174;2022-10-15T13:32:39;10.40;99.90
16305;DHT22;8261;47.678;-122.174;2022-10-15T13:35:16;10.40;99.90
16305;DHT22;8261;47.678;-122.174;2022-10-15T13:37:48;10.40;99.90
16305;DHT22;8261;47.678;-122.174;2022-10-15T13:40:21;10.30;99.90
16305;DHT22;8261;47.678;-122.174;2022-10-15T13:43:02;10.30;99.90
16305;DHT22;8261;47.678;-122.174;2022-10-15T13:45:34;10.30;99.90
16305;DHT22;8261;47.678;-122.174;2022-10-15T13:48:10;10.30;99.90
16305;DHT22;8261;47.678;-122.174;2022-10-15T13:50:42;10.30;99.90
16305;DHT22;8261;47.678;-122.174;2022-10-15T13:53:21;10.30;99.90
16305;DHT22;8261;47.678;-122.174;2022-10-15T13:55:54;10.30;99.90
16305;DHT22;8261;47.678;-122.174;2022-10-15T13:58:28;10.30;99.90
16305;DHT22;8261;47.678;-122.174;2022-10-15T14:01:02;10.30;99.90
16305;DHT22;8261;47.678;-122.174;2022-10-15T14:03:36;10.30;99.90
16305;DHT22;8261;47.678;-122.174;2022-10-15T14:06:14;10.20;99.90
16305;DHT22;8261;47.678;-122.174;2022-10-15T14:08:48;10.20;99.90
16305;DHT22;8261;47.678;-122.174;2022-10-15T14:11:20;10.10;99.90
16305;DHT22;8261;47.678;-122.174;2022-10-15T14:13:56;10.10;99.90
16305;DHT22;8261;47.678;-122.174;2022-10-15T14:16:29;10.10;99.90
16305;DHT22;8261;47.678;-122.174;2022-10-15T14:19:08;10.10;99.90
16305;DHT22;8261;47.678;-122.174;2022-10-15T14:21:43;10.10;99.90
16305;DHT22;8261;47.678;-122.174;2022-10-15T14:24:18;10.00;99.90
16305;DHT22;8261;47.678;-122.174;2022-10-15T14:26:49;10.10;99.90
16305;DHT22;8261;47.678;-122.174;2022-10-15T14:29:25;10.10;99.90
16305;DHT22;8261;47.678;-122.174;2022-10-15T14:31:57;10.10;99.90
16305;DHT22;8261;47.678;-122.174;2022-10-15T14:34:30;10.00;99.90
16305;DHT22;8261;47.678;-122.174;2022-10-15T14:37:27;10.00;99.90
16305;DHT22;8261;47.678;-122.174;2022-10-15T14:40:14;10.00;99.90
16305;DHT22;8261;47.678;-122.174;2022-10-15T14:42:48;10.10;99.90
16305;DHT22;8261;47.678;-122.174;2022-10-15T14:45:29;10.10;99.90
16305;DHT22;8261;47.678;-122.174;2022-10-15T14:48:01;10.10;99.90
16305;DHT22;8261;47.678;-122.174;2022-10-15T14:50:41;10.10;99.90
16305;DHT22;8261;47.678;-122.174;2022-10-15T14:53:18;10.20;99.90
16305;DHT22;8261;47.678;-122.174;2022-10-15T14:55:51;10.20;99.90
16305;DHT22;8261;47.678;-122.174;2022-10-15T14:58:27;10.20;99.90
16305;DHT22;8261;47.678;-122.174;2022-10-15T15:01:06;10.20;99.90
16305;DHT22;8261;47.678;-122.174;2022-10-15T15:03:40;10.30;99.90
16305;DHT22;8261;47.678;-122.174;2022-10-15T15:06:14;10.30;99.90
16305;DHT22;8261;47.678;-122.174;2022-10-15T15:08:47;10.30;99.90
16305;DHT22;8261;47.678;-122.174;2022-10-15T15:11:20;10.40;99.90
16305;DHT22;8261;47.678;-122.174;2022-10-15T15:13:51;10.40;99.90
16305;DHT22;8261;47.678;-122.174;2022-10-15T15:16:25;10.50;99.90
16305;DHT22;8261;47.678;-122.174;2022-10-15T15:18:56;10.50;99.90
16305;DHT22;8261;47.678;-122.174;2022-10-15T15:21:28;10.50;99.90
16305;DHT22;8261;47.678;-122.174;2022-10-15T15:23:59;10.60;99.90
16305;DHT22;8261;47.678;-122.174;2022-10-15T15:26:29;10.60;99.90
16305;DHT22;8261;47.678;-122.174;2022-10-15T15:29:01;10.60;99.90
16305;DHT22;8261;47.678;-122.174;2022-10-15T15:31:38;10.70;99.90
16305;DHT22;8261;47.678;-122.174;2022-10-15T15:34:10;10.70;99.90
16305;DHT22;8261;47.678;-122.174;2022-10-15T15:36:44;10.80;99.90
16305;DHT22;8261;47.678;-122.174;2022-10-15T15:39:15;10.80;99.90
16305;DHT22;8261;47.678;-122.174;2022-10-15T15:41:46;10.90;99.90
16305;DHT22;8261;47.678;-122.174;2022-10-15T15:44:18;10.90;99.90
16305;DHT22;8261;47.678;-122.174;2022-10-15T15:46:52;11.00;99.90
16305;DHT22;8261;47.678;-122.174;2022-10-15T15:49:23;11.10;99.90
16305;DHT22;8261;47.678;-122.174;2022-10-15T15:51:55;11.10;99.90
16305;DHT22;8261;47.678;-122.174;2022-10-15T15:54:26;11.20;99.90
16305;DHT22;8261;47.678;-122.174;2022-10-15T15:56:57;11.30;99.90
16305;DHT22;8261;47.678;-122.174;2022-10-15T15:59:28;11.30;99.90
16305;DHT22;8261;47.678;-122.174;2022-10-15T16:02:01;11.40;99.90